X  Close Metar Aviation Weather Data     LYNI Nis Airport
Temperature
0°C Temperature
0°C Dewpoint
100% Humidity



Wind
2 M/S
5 MPH
8 KM/H
4 KTS



130°
SE
Current Conditions

Mostly Cloudy Mostly Cloudy
Pressure 1019.92 (hPa) - 30.12 (inHg)
Visibility 6.2 (mile) - 10 (km)
Airport
Airport-code LYNI

Location: Nis Airport
Distance: 63 (km)

Metar:
LYNI 010300Z 13004KT 120V190 9999 BKN033 00/M00 Q1020 NOSIG

Time: 01-02-2023 04:00 CET